sensor_id;sensor_type;location;lat;lon;timestamp;temperature;humidity
19437;DHT22;9854;50.968;4.168;2022-12-05T00:02:08;5.60;99.90
19437;DHT22;9854;50.968;4.168;2022-12-05T00:04:34;5.60;99.90
19437;DHT22;9854;50.968;4.168;2022-12-05T00:07:00;5.60;99.90
19437;DHT22;9854;50.968;4.168;2022-12-05T00:09:26;5.70;99.90
19437;DHT22;9854;50.968;4.168;2022-12-05T00:11:51;5.70;99.90
19437;DHT22;9854;50.968;4.168;2022-12-05T00:14:17;5.70;99.90
19437;DHT22;9854;50.968;4.168;2022-12-05T00:16:43;5.70;99.90
19437;DHT22;9854;50.968;4.168;2022-12-05T00:19:12;5.70;99.90
19437;DHT22;9854;50.968;4.168;2022-12-05T00:21:38;5.70;99.90
19437;DHT22;9854;50.968;4.168;2022-12-05T00:24:06;5.70;99.90
19437;DHT22;9854;50.968;4.168;2022-12-05T00:26:33;5.70;99.90
19437;DHT22;9854;50.968;4.168;2022-12-05T00:28:59;5.70;99.90
19437;DHT22;9854;50.968;4.168;2022-12-05T00:31:25;5.70;99.90
19437;DHT22;9854;50.968;4.168;2022-12-05T00:33:52;5.70;99.90
19437;DHT22;9854;50.968;4.168;2022-12-05T00:36:20;5.70;99.90
19437;DHT22;9854;50.968;4.168;2022-12-05T00:38:46;5.70;99.90
19437;DHT22;9854;50.968;4.168;2022-12-05T00:41:18;5.60;99.90
19437;DHT22;9854;50.968;4.168;2022-12-05T00:43:44;5.60;99.90
19437;DHT22;9854;50.968;4.168;2022-12-05T00:46:13;5.70;99.90
19437;DHT22;9854;50.968;4.168;2022-12-05T00:48:39;5.70;99.90
19437;DHT22;9854;50.968;4.168;2022-12-05T00:51:16;5.70;99.90
19437;DHT22;9854;50.968;4.168;2022-12-05T00:53:43;5.80;99.90
19437;DHT22;9854;50.968;4.168;2022-12-05T00:56:18;5.80;99.90
19437;DHT22;9854;50.968;4.168;2022-12-05T00:58:44;5.70;99.90
19437;DHT22;9854;50.968;4.168;2022-12-05T01:01:20;5.70;99.90
19437;DHT22;9854;50.968;4.168;2022-12-05T01:03:47;5.70;99.90
19437;DHT22;9854;50.968;4.168;2022-12-05T01:06:14;5.60;99.90
19437;DHT22;9854;50.968;4.168;2022-12-05T01:08:40;5.70;99.90
19437;DHT22;9854;50.968;4.168;2022-12-05T01:11:07;5.70;99.90
19437;DHT22;9854;50.968;4.168;2022-12-05T01:13:33;5.70;99.90
19437;DHT22;9854;50.968;4.168;2022-12-05T01:15:59;5.70;99.90
19437;DHT22;9854;50.968;4.168;2022-12-05T01:18:25;5.70;99.90
19437;DHT22;9854;50.968;4.168;2022-12-05T01:20:51;5.60;99.90
19437;DHT22;9854;50.968;4.168;2022-12-05T01:23:17;5.60;99.90
19437;DHT22;9854;50.968;4.168;2022-12-05T01:25:46;5.70;99.90
19437;DHT22;9854;50.968;4.168;2022-12-05T01:28:13;5.60;99.90
19437;DHT22;9854;50.968;4.168;2022-12-05T01:30:40;5.60;99.90
19437;DHT22;9854;50.968;4.168;2022-12-05T01:33:06;5.60;99.90
19437;DHT22;9854;50.968;4.168;2022-12-05T01:35:33;5.60;99.90
19437;DHT22;9854;50.968;4.168;2022-12-05T01:37:59;5.60;99.90
19437;DHT22;9854;50.968;4.168;2022-12-05T01:40:25;5.60;99.90
19437;DHT22;9854;50.968;4.168;2022-12-05T01:42:51;5.70;99.90
19437;DHT22;9854;50.968;4.168;2022-12-05T01:45:35;5.60;99.90
19437;DHT22;9854;50.968;4.168;2022-12-05T01:48:04;5.60;99.90
19437;DHT22;9854;50.968;4.168;2022-12-05T01:50:31;5.60;99.90
19437;DHT22;9854;50.968;4.168;2022-12-05T01:52:57;5.50;99.90
19437;DHT22;9854;50.968;4.168;2022-12-05T01:55:23;5.50;99.90
19437;DHT22;9854;50.968;4.168;2022-12-05T01:57:49;5.50;99.90
19437;DHT22;9854;50.968;4.168;2022-12-05T02:00:17;5.50;99.90
19437;DHT22;9854;50.968;4.168;2022-12-05T02:02:48;5.50;99.90
19437;DHT22;9854;50.968;4.168;2022-12-05T02:05:19;5.50;99.90
19437;DHT22;9854;50.968;4.168;2022-12-05T02:07:46;5.50;99.90
19437;DHT22;9854;50.968;4.168;2022-12-05T02:10:12;5.50;99.90
19437;DHT22;9854;50.968;4.168;2022-12-05T02:12:38;5.50;99.90
19437;DHT22;9854;50.968;4.168;2022-12-05T02:15:16;5.50;99.90
19437;DHT22;9854;50.968;4.168;2022-12-05T02:18:07;5.50;99.90
19437;DHT22;9854;50.968;4.168;2022-12-05T02:33:58;5.20;99.90
19437;DHT22;9854;50.968;4.168;2022-12-05T02:36:40;5.00;99.90
19437;DHT22;9854;50.968;4.168;2022-12-05T02:39:16;5.00;99.90
19437;DHT22;9854;50.968;4.168;2022-12-05T02:41:58;5.20;99.90
19437;DHT22;9854;50.968;4.168;2022-12-05T02:44:43;5.20;99.90
19437;DHT22;9854;50.968;4.168;2022-12-05T02:47:11;5.30;99.90
19437;DHT22;9854;50.968;4.168;2022-12-05T02:49:39;5.40;99.90
19437;DHT22;9854;50.968;4.168;2022-12-05T02:52:10;5.20;99.90
19437;DHT22;9854;50.968;4.168;2022-12-05T02:54:40;5.30;99.90
19437;DHT22;9854;50.968;4.168;2022-12-05T02:57:07;5.30;99.90
19437;DHT22;9854;50.968;4.168;2022-12-05T02:59:34;5.40;99.90
19437;DHT22;9854;50.968;4.168;2022-12-05T03:02:00;5.50;99.90
19437;DHT22;9854;50.968;4.168;2022-12-05T03:04:26;5.50;99.90
19437;DHT22;9854;50.968;4.168;2022-12-05T03:07:02;5.60;99.90
19437;DHT22;9854;50.968;4.168;2022-12-05T03:09:57;5.60;99.90
19437;DHT22;9854;50.968;4.168;2022-12-05T03:12:31;5.60;99.90
19437;DHT22;9854;50.968;4.168;2022-12-05T03:15:15;5.60;99.90
19437;DHT22;9854;50.968;4.168;2022-12-05T03:17:56;5.70;99.90
19437;DHT22;9854;50.968;4.168;2022-12-05T03:20:28;5.60;99.90
19437;DHT22;9854;50.968;4.168;2022-12-05T03:23:14;5.60;99.90
19437;DHT22;9854;50.968;4.168;2022-12-05T03:30:47;4.80;99.90
19437;DHT22;9854;50.968;4.168;2022-12-05T03:33:23;4.60;99.90
19437;DHT22;9854;50.968;4.168;2022-12-05T03:36:07;4.50;99.90
19437;DHT22;9854;50.968;4.168;2022-12-05T03:38:46;4.60;99.90
19437;DHT22;9854;50.968;4.168;2022-12-05T03:41:19;4.50;99.90
19437;DHT22;9854;50.968;4.168;2022-12-05T03:43:58;4.40;99.90
19437;DHT22;9854;50.968;4.168;2022-12-05T03:46:35;4.40;99.90
19437;DHT22;9854;50.968;4.168;2022-12-05T03:52:11;4.30;99.90
19437;DHT22;9854;50.968;4.168;2022-12-05T03:54:42;4.10;99.90
19437;DHT22;9854;50.968;4.168;2022-12-05T03:57:16;4.00;99.90
19437;DHT22;9854;50.968;4.168;2022-12-05T04:00:09;4.00;99.90
19437;DHT22;9854;50.968;4.168;2022-12-05T04:02:48;3.80;99.90
19437;DHT22;9854;50.968;4.168;2022-12-05T04:07:48;4.00;99.90
19437;DHT22;9854;50.968;4.168;2022-12-05T04:10:22;4.10;99.90
19437;DHT22;9854;50.968;4.168;2022-12-05T04:12:51;4.30;99.90
19437;DHT22;9854;50.968;4.168;2022-12-05T04:15:23;4.50;99.90
19437;DHT22;9854;50.968;4.168;2022-12-05T04:17:58;4.70;99.90
19437;DHT22;9854;50.968;4.168;2022-12-05T04:20:31;4.90;99.90
19437;DHT22;9854;50.968;4.168;2022-12-05T04:23:18;5.00;99.90
19437;DHT22;9854;50.968;4.168;2022-12-05T04:26:19;5.00;99.90
19437;DHT22;9854;50.968;4.168;2022-12-05T04:28:55;5.10;99.90
19437;DHT22;9854;50.968;4.168;2022-12-05T04:31:29;5.20;99.90
19437;DHT22;9854;50.968;4.168;2022-12-05T04:34:03;5.10;99.90
19437;DHT22;9854;50.968;4.168;2022-12-05T04:36:57;5.50;99.90
19437;DHT22;9854;50.968;4.168;2022-12-05T04:39:36;5.40;99.90
19437;DHT22;9854;50.968;4.168;2022-12-05T04:42:09;5.40;99.90
19437;DHT22;9854;50.968;4.168;2022-12-05T04:44:54;5.50;99.90
19437;DHT22;9854;50.968;4.168;2022-12-05T04:47:25;5.50;99.90
19437;DHT22;9854;50.968;4.168;2022-12-05T04:49:54;5.50;99.90
19437;DHT22;9854;50.968;4.168;2022-12-05T04:52:20;5.70;99.90
19437;DHT22;9854;50.968;4.168;2022-12-05T04:54:53;5.60;99.90
19437;DHT22;9854;50.968;4.168;2022-12-05T04:57:42;5.50;99.90
19437;DHT22;9854;50.968;4.168;2022-12-05T05:00:09;5.40;99.90
19437;DHT22;9854;50.968;4.168;2022-12-05T05:02:57;5.20;99.90
19437;DHT22;9854;50.968;4.168;2022-12-05T05:05:26;5.30;99.90
19437;DHT22;9854;50.968;4.168;2022-12-05T05:07:53;5.30;99.90
19437;DHT22;9854;50.968;4.168;2022-12-05T05:10:27;5.40;99.90
19437;DHT22;9854;50.968;4.168;2022-12-05T05:12:55;5.20;99.90
19437;DHT22;9854;50.968;4.168;2022-12-05T05:15:20;5.10;99.90
19437;DHT22;9854;50.968;4.168;2022-12-05T05:17:46;5.10;99.90
19437;DHT22;9854;50.968;4.168;2022-12-05T05:20:12;5.30;99.90
19437;DHT22;9854;50.968;4.168;2022-12-05T05:22:55;5.20;99.90
19437;DHT22;9854;50.968;4.168;2022-12-05T05:25:22;5.30;99.90
19437;DHT22;9854;50.968;4.168;2022-12-05T05:27:52;5.20;99.90
19437;DHT22;9854;50.968;4.168;2022-12-05T05:30:18;5.20;99.90
19437;DHT22;9854;50.968;4.168;2022-12-05T05:32:45;5.30;99.90
19437;DHT22;9854;50.968;4.168;2022-12-05T05:35:11;5.40;99.90
19437;DHT22;9854;50.968;4.168;2022-12-05T05:37:37;5.50;99.90
19437;DHT22;9854;50.968;4.168;2022-12-05T05:40:05;5.40;99.90
19437;DHT22;9854;50.968;4.168;2022-12-05T05:42:31;5.40;99.90
19437;DHT22;9854;50.968;4.168;2022-12-05T05:44:56;5.40;99.90
19437;DHT22;9854;50.968;4.168;2022-12-05T05:47:22;5.50;99.90
19437;DHT22;9854;50.968;4.168;2022-12-05T05:49:47;5.20;99.90
19437;DHT22;9854;50.968;4.168;2022-12-05T05:52:13;5.10;99.90
19437;DHT22;9854;50.968;4.168;2022-12-05T05:54:39;4.80;99.90
19437;DHT22;9854;50.968;4.168;2022-12-05T05:57:05;4.70;99.90
19437;DHT22;9854;50.968;4.168;2022-12-05T05:59:31;4.80;99.90
19437;DHT22;9854;50.968;4.168;2022-12-05T06:01:56;4.60;99.90
19437;DHT22;9854;50.968;4.168;2022-12-05T06:04:22;4.70;99.90
19437;DHT22;9854;50.968;4.168;2022-12-05T06:06:47;4.70;99.90
19437;DHT22;9854;50.968;4.168;2022-12-05T06:09:13;4.80;99.90
19437;DHT22;9854;50.968;4.168;2022-12-05T06:11:38;4.70;99.90
19437;DHT22;9854;50.968;4.168;2022-12-05T06:14:04;4.80;99.90
19437;DHT22;9854;50.968;4.168;2022-12-05T06:16:30;4.80;99.90
19437;DHT22;9854;50.968;4.168;2022-12-05T06:18:56;4.80;99.90
19437;DHT22;9854;50.968;4.168;2022-12-05T06:21:23;4.80;99.90
19437;DHT22;9854;50.968;4.168;2022-12-05T06:23:49;5.00;99.90
19437;DHT22;9854;50.968;4.168;2022-12-05T06:26:17;4.90;99.90
19437;DHT22;9854;50.968;4.168;2022-12-05T06:28:43;4.90;99.90
19437;DHT22;9854;50.968;4.168;2022-12-05T06:31:21;4.80;99.90
19437;DHT22;9854;50.968;4.168;2022-12-05T06:33:47;5.00;99.90
19437;DHT22;9854;50.968;4.168;2022-12-05T06:36:15;4.90;99.90
19437;DHT22;9854;50.968;4.168;2022-12-05T06:38:41;4.80;99.90
19437;DHT22;9854;50.968;4.168;2022-12-05T06:41:12;4.80;99.90
19437;DHT22;9854;50.968;4.168;2022-12-05T06:43:38;4.70;99.90
19437;DHT22;9854;50.968;4.168;2022-12-05T06:46:06;4.70;99.90
19437;DHT22;9854;50.968;4.168;2022-12-05T06:48:32;4.70;99.90
19437;DHT22;9854;50.968;4.168;2022-12-05T06:50:57;4.60;99.90
19437;DHT22;9854;50.968;4.168;2022-12-05T06:53:23;4.60;99.90
19437;DHT22;9854;50.968;4.168;2022-12-05T06:55:59;4.60;99.90
19437;DHT22;9854;50.968;4.168;2022-12-05T06:58:26;4.50;99.90
19437;DHT22;9854;50.968;4.168;2022-12-05T07:00:53;4.60;99.90
19437;DHT22;9854;50.968;4.168;2022-12-05T07:03:38;4.70;99.90
19437;DHT22;9854;50.968;4.168;2022-12-05T07:06:05;4.80;99.90
19437;DHT22;9854;50.968;4.168;2022-12-05T07:08:32;4.90;99.90
19437;DHT22;9854;50.968;4.168;2022-12-05T07:10:58;5.00;99.90
19437;DHT22;9854;50.968;4.168;2022-12-05T07:13:24;5.00;99.90
19437;DHT22;9854;50.968;4.168;2022-12-05T07:15:50;5.10;99.90
19437;DHT22;9854;50.968;4.168;2022-12-05T07:18:16;5.10;99.90
19437;DHT22;9854;50.968;4.168;2022-12-05T07:20:42;5.20;99.90
19437;DHT22;9854;50.968;4.168;2022-12-05T07:23:09;5.30;99.90
19437;DHT22;9854;50.968;4.168;2022-12-05T07:25:41;5.40;99.90
19437;DHT22;9854;50.968;4.168;2022-12-05T07:28:07;5.40;99.90
19437;DHT22;9854;50.968;4.168;2022-12-05T07:30:33;5.40;99.90
19437;DHT22;9854;50.968;4.168;2022-12-05T07:32:58;5.40;99.90
19437;DHT22;9854;50.968;4.168;2022-12-05T07:35:24;5.40;99.90
19437;DHT22;9854;50.968;4.168;2022-12-05T07:37:50;5.40;99.90
19437;DHT22;9854;50.968;4.168;2022-12-05T07:40:15;5.40;99.90
19437;DHT22;9854;50.968;4.168;2022-12-05T07:42:41;5.20;99.90
19437;DHT22;9854;50.968;4.168;2022-12-05T07:45:07;5.30;99.90
19437;DHT22;9854;50.968;4.168;2022-12-05T07:47:33;5.50;99.90
19437;DHT22;9854;50.968;4.168;2022-12-05T07:49:58;5.60;99.90
19437;DHT22;9854;50.968;4.168;2022-12-05T07:52:24;5.70;99.90
19437;DHT22;9854;50.968;4.168;2022-12-05T07:54:50;5.70;99.90
19437;DHT22;9854;50.968;4.168;2022-12-05T07:57:15;5.30;99.90
19437;DHT22;9854;50.968;4.168;2022-12-05T07:59:41;5.20;99.90
19437;DHT22;9854;50.968;4.168;2022-12-05T08:02:07;5.10;99.90
19437;DHT22;9854;50.968;4.168;2022-12-05T08:04:33;5.20;99.90
19437;DHT22;9854;50.968;4.168;2022-12-05T08:06:59;5.30;99.90
19437;DHT22;9854;50.968;4.168;2022-12-05T08:09:24;5.40;99.90
19437;DHT22;9854;50.968;4.168;2022-12-05T08:11:50;5.40;99.90
19437;DHT22;9854;50.968;4.168;2022-12-05T08:14:16;5.30;99.90
19437;DHT22;9854;50.968;4.168;2022-12-05T08:16:41;5.30;99.90
19437;DHT22;9854;50.968;4.168;2022-12-05T08:19:10;5.40;99.90
19437;DHT22;9854;50.968;4.168;2022-12-05T08:21:37;5.30;99.90
19437;DHT22;9854;50.968;4.168;2022-12-05T08:24:05;5.20;99.90
19437;DHT22;9854;50.968;4.168;2022-12-05T08:26:31;5.30;99.90
19437;DHT22;9854;50.968;4.168;2022-12-05T08:29:00;5.50;99.90
19437;DHT22;9854;50.968;4.168;2022-12-05T08:31:30;5.30;99.90
19437;DHT22;9854;50.968;4.168;2022-12-05T08:33:57;5.30;99.90
19437;DHT22;9854;50.968;4.168;2022-12-05T08:36:23;5.30;99.90
19437;DHT22;9854;50.968;4.168;2022-12-05T08:38:48;5.20;99.90
19437;DHT22;9854;50.968;4.168;2022-12-05T08:41:16;5.30;99.90
19437;DHT22;9854;50.968;4.168;2022-12-05T08:43:42;5.50;99.90
19437;DHT22;9854;50.968;4.168;2022-12-05T08:46:08;5.70;99.90
19437;DHT22;9854;50.968;4.168;2022-12-05T08:48:34;5.60;99.90
19437;DHT22;9854;50.968;4.168;2022-12-05T08:51:05;5.70;99.90
19437;DHT22;9854;50.968;4.168;2022-12-05T08:53:31;5.90;99.90
19437;DHT22;9854;50.968;4.168;2022-12-05T08:56:04;5.90;99.90
19437;DHT22;9854;50.968;4.168;2022-12-05T08:58:30;6.00;99.90
19437;DHT22;9854;50.968;4.168;2022-12-05T09:01:08;6.10;99.90
19437;DHT22;9854;50.968;4.168;2022-12-05T09:03:34;6.20;99.90
19437;DHT22;9854;50.968;4.168;2022-12-05T09:08:37;6.10;99.90
19437;DHT22;9854;50.968;4.168;2022-12-05T09:11:08;6.00;99.90
19437;DHT22;9854;50.968;4.168;2022-12-05T09:13:34;6.00;99.90
19437;DHT22;9854;50.968;4.168;2022-12-05T09:16:05;6.00;99.90
19437;DHT22;9854;50.968;4.168;2022-12-05T09:18:30;5.90;99.90
19437;DHT22;9854;50.968;4.168;2022-12-05T09:20:56;5.90;99.90
19437;DHT22;9854;50.968;4.168;2022-12-05T09:23:22;5.90;99.90
19437;DHT22;9854;50.968;4.168;2022-12-05T09:25:53;5.90;99.90
19437;DHT22;9854;50.968;4.168;2022-12-05T09:28:25;5.90;99.90
19437;DHT22;9854;50.968;4.168;2022-12-05T09:30:59;6.10;99.90
19437;DHT22;9854;50.968;4.168;2022-12-05T09:33:27;6.40;99.90
19437;DHT22;9854;50.968;4.168;2022-12-05T09:35:53;6.30;99.90
19437;DHT22;9854;50.968;4.168;2022-12-05T09:38:19;6.40;99.90
19437;DHT22;9854;50.968;4.168;2022-12-05T09:40:45;6.50;99.90
19437;DHT22;9854;50.968;4.168;2022-12-05T09:43:27;6.70;99.90
19437;DHT22;9854;50.968;4.168;2022-12-05T09:48:53;6.40;99.90
19437;DHT22;9854;50.968;4.168;2022-12-05T09:51:19;6.60;99.90
19437;DHT22;9854;50.968;4.168;2022-12-05T09:53:45;6.70;99.90
19437;DHT22;9854;50.968;4.168;2022-12-05T09:56:27;6.60;99.90
19437;DHT22;9854;50.968;4.168;2022-12-05T09:58:55;6.80;99.90
19437;DHT22;9854;50.968;4.168;2022-12-05T10:07:11;6.90;99.90
19437;DHT22;9854;50.968;4.168;2022-12-05T10:15:03;6.60;99.90
19437;DHT22;9854;50.968;4.168;2022-12-05T10:17:36;6.40;99.90
19437;DHT22;9854;50.968;4.168;2022-12-05T10:20:31;6.30;99.90
19437;DHT22;9854;50.968;4.168;2022-12-05T10:23:02;6.30;99.90
19437;DHT22;9854;50.968;4.168;2022-12-05T10:25:31;6.60;99.90
19437;DHT22;9854;50.968;4.168;2022-12-05T10:28:00;6.80;99.90
19437;DHT22;9854;50.968;4.168;2022-12-05T10:30:29;6.90;99.90
19437;DHT22;9854;50.968;4.168;2022-12-05T10:32:58;7.10;99.90
19437;DHT22;9854;50.968;4.168;2022-12-05T10:35:29;7.20;99.90
19437;DHT22;9854;50.968;4.168;2022-12-05T10:38:05;7.20;99.90
19437;DHT22;9854;50.968;4.168;2022-12-05T10:40:44;6.90;99.90
19437;DHT22;9854;50.968;4.168;2022-12-05T10:43:13;7.00;99.90
19437;DHT22;9854;50.968;4.168;2022-12-05T10:45:45;7.10;99.90
19437;DHT22;9854;50.968;4.168;2022-12-05T10:48:13;7.10;99.90
19437;DHT22;9854;50.968;4.168;2022-12-05T10:50:41;6.90;99.90
19437;DHT22;9854;50.968;4.168;2022-12-05T10:53:12;6.90;99.90
19437;DHT22;9854;50.968;4.168;2022-12-05T10:55:45;7.00;99.90
19437;DHT22;9854;50.968;4.168;2022-12-05T10:58:33;7.20;99.90
19437;DHT22;9854;50.968;4.168;2022-12-05T11:01:09;7.30;99.90
19437;DHT22;9854;50.968;4.168;2022-12-05T11:03:39;7.30;99.90
19437;DHT22;9854;50.968;4.168;2022-12-05T11:06:17;7.30;99.90
19437;DHT22;9854;50.968;4.168;2022-12-05T11:08:54;7.30;99.90
19437;DHT22;9854;50.968;4.168;2022-12-05T11:11:26;7.20;99.90
19437;DHT22;9854;50.968;4.168;2022-12-05T11:14:06;7.20;99.90
19437;DHT22;9854;50.968;4.168;2022-12-05T11:16:37;7.10;99.90
19437;DHT22;9854;50.968;4.168;2022-12-05T11:19:29;7.00;99.90
19437;DHT22;9854;50.968;4.168;2022-12-05T11:21:55;7.10;99.90
19437;DHT22;9854;50.968;4.168;2022-12-05T11:24:30;7.00;99.90
19437;DHT22;9854;50.968;4.168;2022-12-05T11:26:58;7.10;99.90
19437;DHT22;9854;50.968;4.168;2022-12-05T11:31:54;7.40;99.90
19437;DHT22;9854;50.968;4.168;2022-12-05T11:34:30;7.50;99.90
19437;DHT22;9854;50.968;4.168;2022-12-05T11:37:08;7.40;99.90
19437;DHT22;9854;50.968;4.168;2022-12-05T11:39:35;7.80;99.90
19437;DHT22;9854;50.968;4.168;2022-12-05T11:42:07;7.80;99.90
19437;DHT22;9854;50.968;4.168;2022-12-05T11:50:10;7.60;99.90
19437;DHT22;9854;50.968;4.168;2022-12-05T11:52:53;7.40;99.90
19437;DHT22;9854;50.968;4.168;2022-12-05T11:55:29;7.20;99.90
19437;DHT22;9854;50.968;4.168;2022-12-05T12:07:01;7.50;99.90
19437;DHT22;9854;50.968;4.168;2022-12-05T12:13:01;7.50;99.90
19437;DHT22;9854;50.968;4.168;2022-12-05T12:16:21;7.50;99.90
19437;DHT22;9854;50.968;4.168;2022-12-05T12:24:00;7.60;99.90
19437;DHT22;9854;50.968;4.168;2022-12-05T12:26:51;7.70;99.90
19437;DHT22;9854;50.968;4.168;2022-12-05T12:29:30;7.50;99.90
19437;DHT22;9854;50.968;4.168;2022-12-05T12:35:28;7.60;99.90
19437;DHT22;9854;50.968;4.168;2022-12-05T12:38:16;7.60;99.90
19437;DHT22;9854;50.968;4.168;2022-12-05T12:40:49;7.60;99.90
19437;DHT22;9854;50.968;4.168;2022-12-05T12:43:34;7.60;99.90
19437;DHT22;9854;50.968;4.168;2022-12-05T12:46:27;7.50;99.90
19437;DHT22;9854;50.968;4.168;2022-12-05T12:49:17;7.30;99.90
19437;DHT22;9854;50.968;4.168;2022-12-05T12:52:00;7.20;99.90
19437;DHT22;9854;50.968;4.168;2022-12-05T13:00:11;7.50;99.90
19437;DHT22;9854;50.968;4.168;2022-12-05T13:02:47;7.40;99.90
19437;DHT22;9854;50.968;4.168;2022-12-05T13:05:45;7.30;99.90
19437;DHT22;9854;50.968;4.168;2022-12-05T13:08:36;7.30;99.90
19437;DHT22;9854;50.968;4.168;2022-12-05T13:11:07;7.30;99.90
19437;DHT22;9854;50.968;4.168;2022-12-05T13:13:37;7.40;99.90
19437;DHT22;9854;50.968;4.168;2022-12-05T13:16:06;7.50;99.90
19437;DHT22;9854;50.968;4.168;2022-12-05T13:18:33;7.40;99.90
19437;DHT22;9854;50.968;4.168;2022-12-05T13:21:04;7.40;99.90
19437;DHT22;9854;50.968;4.168;2022-12-05T13:23:33;7.30;99.90
19437;DHT22;9854;50.968;4.168;2022-12-05T13:26:00;7.20;99.90
19437;DHT22;9854;50.968;4.168;2022-12-05T13:28:46;7.30;99.90
19437;DHT22;9854;50.968;4.168;2022-12-05T13:31:13;7.30;99.90
19437;DHT22;9854;50.968;4.168;2022-12-05T13:33:46;7.20;99.90
19437;DHT22;9854;50.968;4.168;2022-12-05T13:41:56;7.20;99.90
19437;DHT22;9854;50.968;4.168;2022-12-05T13:50:57;7.10;99.90
19437;DHT22;9854;50.968;4.168;2022-12-05T13:53:47;7.10;99.90
19437;DHT22;9854;50.968;4.168;2022-12-05T13:58:53;7.10;99.90
19437;DHT22;9854;50.968;4.168;2022-12-05T14:18:24;7.00;99.90
19437;DHT22;9854;50.968;4.168;2022-12-05T14:20:31;7.00;99.90
19437;DHT22;9854;50.968;4.168;2022-12-05T14:31:18;7.00;99.90
19437;DHT22;9854;50.968;4.168;2022-12-05T14:34:24;6.90;99.90
19437;DHT22;9854;50.968;4.168;2022-12-05T14:36:56;6.80;99.90
19437;DHT22;9854;50.968;4.168;2022-12-05T14:39:35;6.90;99.90
19437;DHT22;9854;50.968;4.168;2022-12-05T14:42:04;6.80;99.90
19437;DHT22;9854;50.968;4.168;2022-12-05T14:44:31;6.90;99.90
19437;DHT22;9854;50.968;4.168;2022-12-05T14:47:03;6.90;99.90
19437;DHT22;9854;50.968;4.168;2022-12-05T14:49:49;6.90;99.90
19437;DHT22;9854;50.968;4.168;2022-12-05T14:52:20;7.00;99.90
19437;DHT22;9854;50.968;4.168;2022-12-05T14:54:46;6.90;99.90
19437;DHT22;9854;50.968;4.168;2022-12-05T14:57:14;6.90;99.90
19437;DHT22;9854;50.968;4.168;2022-12-05T14:59:53;6.90;99.90
19437;DHT22;9854;50.968;4.168;2022-12-05T15:02:30;7.00;99.90
19437;DHT22;9854;50.968;4.168;2022-12-05T15:05:05;7.00;99.90
19437;DHT22;9854;50.968;4.168;2022-12-05T15:07:38;7.00;99.90
19437;DHT22;9854;50.968;4.168;2022-12-05T15:10:27;7.00;99.90
19437;DHT22;9854;50.968;4.168;2022-12-05T15:12:57;7.10;99.90
19437;DHT22;9854;50.968;4.168;2022-12-05T15:15:42;7.00;99.90
19437;DHT22;9854;50.968;4.168;2022-12-05T15:18:27;6.90;99.90
19437;DHT22;9854;50.968;4.168;2022-12-05T15:21:09;6.80;99.90
19437;DHT22;9854;50.968;4.168;2022-12-05T15:26:20;6.80;99.90
19437;DHT22;9854;50.968;4.168;2022-12-05T15:29:11;6.80;99.90
19437;DHT22;9854;50.968;4.168;2022-12-05T15:31:50;6.60;99.90
19437;DHT22;9854;50.968;4.168;2022-12-05T15:37:13;6.60;99.90
19437;DHT22;9854;50.968;4.168;2022-12-05T15:42:40;6.60;99.90
19437;DHT22;9854;50.968;4.168;2022-12-05T15:50:22;6.60;99.90
19437;DHT22;9854;50.968;4.168;2022-12-05T15:52:58;6.60;99.90
19437;DHT22;9854;50.968;4.168;2022-12-05T15:55:29;7.10;99.90
19437;DHT22;9854;50.968;4.168;2022-12-05T15:58:06;6.90;99.90
19437;DHT22;9854;50.968;4.168;2022-12-05T16:00:39;7.00;99.90
19437;DHT22;9854;50.968;4.168;2022-12-05T16:03:16;7.10;99.90
19437;DHT22;9854;50.968;4.168;2022-12-05T16:05:52;7.00;99.90
19437;DHT22;9854;50.968;4.168;2022-12-05T16:08:20;7.00;99.90
19437;DHT22;9854;50.968;4.168;2022-12-05T16:10:48;7.00;99.90
19437;DHT22;9854;50.968;4.168;2022-12-05T16:13:15;7.00;99.90
19437;DHT22;9854;50.968;4.168;2022-12-05T16:15:46;7.00;99.90
19437;DHT22;9854;50.968;4.168;2022-12-05T16:18:30;6.90;99.90
19437;DHT22;9854;50.968;4.168;2022-12-05T16:20:56;7.00;99.90
19437;DHT22;9854;50.968;4.168;2022-12-05T16:23:28;7.10;99.90
19437;DHT22;9854;50.968;4.168;2022-12-05T16:26:17;7.20;99.90
19437;DHT22;9854;50.968;4.168;2022-12-05T16:28:56;7.20;99.90
19437;DHT22;9854;50.968;4.168;2022-12-05T16:31:22;7.20;99.90
19437;DHT22;9854;50.968;4.168;2022-12-05T16:34:11;7.30;99.90
19437;DHT22;9854;50.968;4.168;2022-12-05T16:37:17;7.20;99.90
19437;DHT22;9854;50.968;4.168;2022-12-05T16:39:44;7.20;99.90
19437;DHT22;9854;50.968;4.168;2022-12-05T16:42:27;7.40;99.90
19437;DHT22;9854;50.968;4.168;2022-12-05T16:50:29;7.40;99.90
19437;DHT22;9854;50.968;4.168;2022-12-05T16:53:30;7.40;99.90
19437;DHT22;9854;50.968;4.168;2022-12-05T16:55:57;7.30;99.90
19437;DHT22;9854;50.968;4.168;2022-12-05T16:58:25;7.20;99.90
19437;DHT22;9854;50.968;4.168;2022-12-05T17:00:58;7.20;99.90
19437;DHT22;9854;50.968;4.168;2022-12-05T17:03:25;7.10;99.90
19437;DHT22;9854;50.968;4.168;2022-12-05T17:05:52;7.10;99.90
19437;DHT22;9854;50.968;4.168;2022-12-05T17:08:17;7.20;99.90
19437;DHT22;9854;50.968;4.168;2022-12-05T17:10:43;7.20;99.90
19437;DHT22;9854;50.968;4.168;2022-12-05T17:13:13;7.30;99.90
19437;DHT22;9854;50.968;4.168;2022-12-05T17:15:39;7.60;99.90
19437;DHT22;9854;50.968;4.168;2022-12-05T17:18:19;7.50;99.90
19437;DHT22;9854;50.968;4.168;2022-12-05T17:20:48;7.60;99.90
19437;DHT22;9854;50.968;4.168;2022-12-05T17:23:15;7.60;99.90
19437;DHT22;9854;50.968;4.168;2022-12-05T17:25:44;7.40;99.90
19437;DHT22;9854;50.968;4.168;2022-12-05T17:28:11;7.20;99.90
19437;DHT22;9854;50.968;4.168;2022-12-05T17:30:37;7.10;99.90
19437;DHT22;9854;50.968;4.168;2022-12-05T17:33:04;7.50;99.90
19437;DHT22;9854;50.968;4.168;2022-12-05T17:35:30;7.60;99.90
19437;DHT22;9854;50.968;4.168;2022-12-05T17:37:56;7.30;99.90
19437;DHT22;9854;50.968;4.168;2022-12-05T17:40:22;7.30;99.90
19437;DHT22;9854;50.968;4.168;2022-12-05T17:42:48;7.10;99.90
19437;DHT22;9854;50.968;4.168;2022-12-05T17:45:14;7.10;99.90
19437;DHT22;9854;50.968;4.168;2022-12-05T17:47:41;7.00;99.90
19437;DHT22;9854;50.968;4.168;2022-12-05T17:50:12;7.10;99.90
19437;DHT22;9854;50.968;4.168;2022-12-05T17:52:38;7.10;99.90
19437;DHT22;9854;50.968;4.168;2022-12-05T17:55:04;7.10;99.90
19437;DHT22;9854;50.968;4.168;2022-12-05T17:57:31;7.00;99.90
19437;DHT22;9854;50.968;4.168;2022-12-05T17:59:56;7.00;99.90
19437;DHT22;9854;50.968;4.168;2022-12-05T18:02:22;7.10;99.90
19437;DHT22;9854;50.968;4.168;2022-12-05T18:04:48;7.00;99.90
19437;DHT22;9854;50.968;4.168;2022-12-05T18:07:14;7.20;99.90
19437;DHT22;9854;50.968;4.168;2022-12-05T18:09:39;7.20;99.90
19437;DHT22;9854;50.968;4.168;2022-12-05T18:12:05;7.10;99.90
19437;DHT22;9854;50.968;4.168;2022-12-05T18:14:31;7.00;99.90
19437;DHT22;9854;50.968;4.168;2022-12-05T18:17:01;7.00;99.90
19437;DHT22;9854;50.968;4.168;2022-12-05T18:19:26;7.00;99.90
19437;DHT22;9854;50.968;4.168;2022-12-05T18:21:52;6.90;99.90
19437;DHT22;9854;50.968;4.168;2022-12-05T18:24:18;7.00;99.90
19437;DHT22;9854;50.968;4.168;2022-12-05T18:26:43;7.10;99.90
19437;DHT22;9854;50.968;4.168;2022-12-05T18:29:09;7.20;99.90
19437;DHT22;9854;50.968;4.168;2022-12-05T18:31:34;7.20;99.90
19437;DHT22;9854;50.968;4.168;2022-12-05T18:34:02;7.10;99.90
19437;DHT22;9854;50.968;4.168;2022-12-05T18:36:28;7.20;99.90
19437;DHT22;9854;50.968;4.168;2022-12-05T18:38:55;7.10;99.90
19437;DHT22;9854;50.968;4.168;2022-12-05T18:41:22;7.10;99.90
19437;DHT22;9854;50.968;4.168;2022-12-05T18:43:50;7.10;99.90